sensor_id;sensor_type;location;lat;lon;timestamp;P1;durP1;ratioP1;P2;durP2;ratioP2
15342;SDS011;7771;48.478;8.936;2023-11-21T00:00:47;3.43;;;1.83;;
15342;SDS011;7771;48.478;8.936;2023-11-21T00:03:14;4.67;;;1.63;;
15342;SDS011;7771;48.478;8.936;2023-11-21T00:05:42;4.27;;;1.90;;
15342;SDS011;7771;48.478;8.936;2023-11-21T00:08:09;4.23;;;1.70;;
15342;SDS011;7771;48.478;8.936;2023-11-21T00:10:36;4.80;;;1.80;;
15342;SDS011;7771;48.478;8.936;2023-11-21T00:13:03;3.63;;;1.53;;
15342;SDS011;7771;48.478;8.936;2023-11-21T00:15:30;2.50;;;1.27;;
15342;SDS011;7771;48.478;8.936;2023-11-21T00:17:59;4.40;;;1.80;;
15342;SDS011;7771;48.478;8.936;2023-11-21T00:20:25;2.50;;;1.60;;
15342;SDS011;7771;48.478;8.936;2023-11-21T00:22:52;4.17;;;1.80;;
15342;SDS011;7771;48.478;8.936;2023-11-21T00:25:19;5.80;;;1.70;;
15342;SDS011;7771;48.478;8.936;2023-11-21T00:27:46;2.83;;;1.60;;
15342;SDS011;7771;48.478;8.936;2023-11-21T00:30:14;5.57;;;1.80;;
15342;SDS011;7771;48.478;8.936;2023-11-21T00:32:41;4.93;;;1.60;;
15342;SDS011;7771;48.478;8.936;2023-11-21T00:35:07;5.40;;;1.90;;
15342;SDS011;7771;48.478;8.936;2023-11-21T00:37:35;4.57;;;1.63;;
15342;SDS011;7771;48.478;8.936;2023-11-21T00:40:01;5.37;;;1.53;;
15342;SDS011;7771;48.478;8.936;2023-11-21T00:42:31;3.40;;;1.40;;
15342;SDS011;7771;48.478;8.936;2023-11-21T00:44:59;3.83;;;1.97;;
15342;SDS011;7771;48.478;8.936;2023-11-21T00:47:27;2.70;;;1.50;;
15342;SDS011;7771;48.478;8.936;2023-11-21T00:49:55;7.80;;;1.60;;
15342;SDS011;7771;48.478;8.936;2023-11-21T00:52:23;2.70;;;1.17;;
15342;SDS011;7771;48.478;8.936;2023-11-21T00:54:50;2.93;;;1.27;;
15342;SDS011;7771;48.478;8.936;2023-11-21T00:57:17;4.90;;;1.60;;
15342;SDS011;7771;48.478;8.936;2023-11-21T00:59:44;3.47;;;1.30;;
15342;SDS011;7771;48.478;8.936;2023-11-21T01:02:10;4.13;;;1.20;;
15342;SDS011;7771;48.478;8.936;2023-11-21T01:04:37;1.80;;;1.30;;
15342;SDS011;7771;48.478;8.936;2023-11-21T01:07:05;2.97;;;1.03;;
15342;SDS011;7771;48.478;8.936;2023-11-21T01:09:32;2.70;;;2.13;;
15342;SDS011;7771;48.478;8.936;2023-11-21T01:11:58;2.27;;;1.23;;
15342;SDS011;7771;48.478;8.936;2023-11-21T01:14:26;3.40;;;1.20;;
15342;SDS011;7771;48.478;8.936;2023-11-21T01:16:52;2.20;;;1.03;;
15342;SDS011;7771;48.478;8.936;2023-11-21T01:19:19;1.73;;;0.93;;
15342;SDS011;7771;48.478;8.936;2023-11-21T01:21:46;3.63;;;1.40;;
15342;SDS011;7771;48.478;8.936;2023-11-21T01:24:12;3.60;;;1.23;;
15342;SDS011;7771;48.478;8.936;2023-11-21T01:26:39;2.63;;;1.13;;
15342;SDS011;7771;48.478;8.936;2023-11-21T01:29:06;3.30;;;0.90;;
15342;SDS011;7771;48.478;8.936;2023-11-21T01:31:34;1.83;;;0.80;;
15342;SDS011;7771;48.478;8.936;2023-11-21T01:34:01;3.70;;;1.23;;
15342;SDS011;7771;48.478;8.936;2023-11-21T01:36:31;1.50;;;1.17;;
15342;SDS011;7771;48.478;8.936;2023-11-21T01:39:01;1.63;;;0.90;;
15342;SDS011;7771;48.478;8.936;2023-11-21T01:41:28;3.70;;;0.90;;
15342;SDS011;7771;48.478;8.936;2023-11-21T01:43:56;2.10;;;0.90;;
15342;SDS011;7771;48.478;8.936;2023-11-21T01:46:25;3.17;;;0.80;;
15342;SDS011;7771;48.478;8.936;2023-11-21T01:48:51;4.37;;;1.20;;
15342;SDS011;7771;48.478;8.936;2023-11-21T01:51:18;4.30;;;1.10;;
15342;SDS011;7771;48.478;8.936;2023-11-21T01:53:45;1.90;;;0.87;;
15342;SDS011;7771;48.478;8.936;2023-11-21T01:56:11;1.40;;;0.77;;
15342;SDS011;7771;48.478;8.936;2023-11-21T01:58:38;3.67;;;0.90;;
15342;SDS011;7771;48.478;8.936;2023-11-21T02:01:06;0.83;;;0.80;;
15342;SDS011;7771;48.478;8.936;2023-11-21T02:03:33;1.23;;;0.80;;
15342;SDS011;7771;48.478;8.936;2023-11-21T02:06:00;1.97;;;0.80;;
15342;SDS011;7771;48.478;8.936;2023-11-21T02:08:27;2.20;;;0.77;;
15342;SDS011;7771;48.478;8.936;2023-11-21T02:10:54;0.73;;;0.60;;
15342;SDS011;7771;48.478;8.936;2023-11-21T02:13:20;1.60;;;0.80;;
15342;SDS011;7771;48.478;8.936;2023-11-21T02:15:49;2.67;;;0.87;;
15342;SDS011;7771;48.478;8.936;2023-11-21T02:18:15;2.67;;;0.70;;
15342;SDS011;7771;48.478;8.936;2023-11-21T02:20:42;1.97;;;0.70;;
15342;SDS011;7771;48.478;8.936;2023-11-21T02:23:08;1.57;;;1.00;;
15342;SDS011;7771;48.478;8.936;2023-11-21T02:25:35;1.50;;;0.80;;
15342;SDS011;7771;48.478;8.936;2023-11-21T02:28:03;2.37;;;0.67;;
15342;SDS011;7771;48.478;8.936;2023-11-21T02:30:31;1.60;;;0.70;;
15342;SDS011;7771;48.478;8.936;2023-11-21T02:32:58;1.40;;;0.60;;
15342;SDS011;7771;48.478;8.936;2023-11-21T02:35:25;0.53;;;0.50;;
15342;SDS011;7771;48.478;8.936;2023-11-21T02:37:52;1.27;;;0.50;;
15342;SDS011;7771;48.478;8.936;2023-11-21T02:40:18;1.03;;;0.50;;
15342;SDS011;7771;48.478;8.936;2023-11-21T02:42:47;0.97;;;0.43;;
15342;SDS011;7771;48.478;8.936;2023-11-21T02:45:14;2.50;;;0.60;;
15342;SDS011;7771;48.478;8.936;2023-11-21T02:47:43;2.40;;;0.70;;
15342;SDS011;7771;48.478;8.936;2023-11-21T02:50:10;1.67;;;0.67;;
15342;SDS011;7771;48.478;8.936;2023-11-21T02:52:38;0.77;;;0.47;;
15342;SDS011;7771;48.478;8.936;2023-11-21T02:55:05;1.30;;;0.50;;
15342;SDS011;7771;48.478;8.936;2023-11-21T02:57:33;1.87;;;0.40;;
15342;SDS011;7771;48.478;8.936;2023-11-21T03:00:00;2.63;;;0.67;;
15342;SDS011;7771;48.478;8.936;2023-11-21T03:02:29;1.43;;;0.53;;
15342;SDS011;7771;48.478;8.936;2023-11-21T03:04:55;1.93;;;0.57;;
15342;SDS011;7771;48.478;8.936;2023-11-21T03:07:22;0.50;;;0.50;;
15342;SDS011;7771;48.478;8.936;2023-11-21T03:09:49;2.10;;;0.40;;
15342;SDS011;7771;48.478;8.936;2023-11-21T03:12:16;1.03;;;0.57;;
15342;SDS011;7771;48.478;8.936;2023-11-21T03:14:43;7.23;;;3.70;;
15342;SDS011;7771;48.478;8.936;2023-11-21T03:17:11;1.23;;;1.10;;
15342;SDS011;7771;48.478;8.936;2023-11-21T03:19:37;1.60;;;0.70;;
15342;SDS011;7771;48.478;8.936;2023-11-21T03:22:04;0.97;;;0.50;;
15342;SDS011;7771;48.478;8.936;2023-11-21T03:24:31;1.40;;;0.60;;
15342;SDS011;7771;48.478;8.936;2023-11-21T03:26:57;1.77;;;0.50;;
15342;SDS011;7771;48.478;8.936;2023-11-21T03:29:25;2.17;;;0.97;;
15342;SDS011;7771;48.478;8.936;2023-11-21T03:31:51;2.17;;;1.07;;
15342;SDS011;7771;48.478;8.936;2023-11-21T03:34:23;2.87;;;0.90;;
15342;SDS011;7771;48.478;8.936;2023-11-21T03:36:49;0.83;;;0.70;;
15342;SDS011;7771;48.478;8.936;2023-11-21T03:39:16;0.70;;;0.70;;
15342;SDS011;7771;48.478;8.936;2023-11-21T03:41:43;1.17;;;0.70;;
15342;SDS011;7771;48.478;8.936;2023-11-21T03:44:10;1.50;;;0.70;;
15342;SDS011;7771;48.478;8.936;2023-11-21T03:46:38;0.53;;;0.53;;
15342;SDS011;7771;48.478;8.936;2023-11-21T03:49:04;0.73;;;0.70;;
15342;SDS011;7771;48.478;8.936;2023-11-21T03:51:32;1.27;;;0.70;;
15342;SDS011;7771;48.478;8.936;2023-11-21T03:53:59;1.80;;;0.90;;
15342;SDS011;7771;48.478;8.936;2023-11-21T03:56:26;0.90;;;0.70;;
15342;SDS011;7771;48.478;8.936;2023-11-21T03:58:52;0.70;;;0.40;;
15342;SDS011;7771;48.478;8.936;2023-11-21T04:01:22;1.07;;;0.70;;
15342;SDS011;7771;48.478;8.936;2023-11-21T04:03:49;3.17;;;0.73;;
15342;SDS011;7771;48.478;8.936;2023-11-21T04:06:15;1.17;;;0.53;;
15342;SDS011;7771;48.478;8.936;2023-11-21T04:08:44;1.00;;;0.80;;
15342;SDS011;7771;48.478;8.936;2023-11-21T04:11:10;2.40;;;1.07;;
15342;SDS011;7771;48.478;8.936;2023-11-21T04:13:40;1.87;;;1.10;;
15342;SDS011;7771;48.478;8.936;2023-11-21T04:16:06;1.77;;;1.00;;
15342;SDS011;7771;48.478;8.936;2023-11-21T04:18:33;2.00;;;1.17;;
15342;SDS011;7771;48.478;8.936;2023-11-21T04:21:01;2.93;;;0.97;;
15342;SDS011;7771;48.478;8.936;2023-11-21T04:23:28;1.20;;;0.80;;
15342;SDS011;7771;48.478;8.936;2023-11-21T04:25:54;1.30;;;0.80;;
15342;SDS011;7771;48.478;8.936;2023-11-21T04:28:20;1.57;;;0.90;;
15342;SDS011;7771;48.478;8.936;2023-11-21T04:30:47;2.00;;;0.90;;
15342;SDS011;7771;48.478;8.936;2023-11-21T04:33:14;0.80;;;0.80;;
15342;SDS011;7771;48.478;8.936;2023-11-21T04:35:41;3.47;;;0.70;;
15342;SDS011;7771;48.478;8.936;2023-11-21T04:38:07;1.50;;;0.60;;
15342;SDS011;7771;48.478;8.936;2023-11-21T04:40:36;2.63;;;0.67;;
15342;SDS011;7771;48.478;8.936;2023-11-21T04:43:03;0.57;;;0.50;;
15342;SDS011;7771;48.478;8.936;2023-11-21T04:45:30;0.50;;;0.50;;
15342;SDS011;7771;48.478;8.936;2023-11-21T04:47:57;1.83;;;0.80;;
15342;SDS011;7771;48.478;8.936;2023-11-21T04:50:26;0.73;;;0.73;;
15342;SDS011;7771;48.478;8.936;2023-11-21T04:52:53;3.13;;;1.00;;
15342;SDS011;7771;48.478;8.936;2023-11-21T04:55:20;1.77;;;0.60;;
15342;SDS011;7771;48.478;8.936;2023-11-21T04:57:47;1.93;;;1.00;;
15342;SDS011;7771;48.478;8.936;2023-11-21T05:00:15;2.67;;;0.80;;
15342;SDS011;7771;48.478;8.936;2023-11-21T05:02:42;2.90;;;0.93;;
15342;SDS011;7771;48.478;8.936;2023-11-21T05:05:09;1.10;;;0.70;;
15342;SDS011;7771;48.478;8.936;2023-11-21T05:07:36;0.80;;;0.70;;
15342;SDS011;7771;48.478;8.936;2023-11-21T05:10:04;1.70;;;0.87;;
15342;SDS011;7771;48.478;8.936;2023-11-21T05:12:34;1.53;;;0.67;;
15342;SDS011;7771;48.478;8.936;2023-11-21T05:15:06;1.80;;;0.77;;
15342;SDS011;7771;48.478;8.936;2023-11-21T05:17:37;0.83;;;0.80;;
15342;SDS011;7771;48.478;8.936;2023-11-21T05:20:04;0.70;;;0.70;;
15342;SDS011;7771;48.478;8.936;2023-11-21T05:22:32;0.97;;;0.70;;
15342;SDS011;7771;48.478;8.936;2023-11-21T05:24:59;4.93;;;2.30;;
15342;SDS011;7771;48.478;8.936;2023-11-21T05:27:27;6.60;;;2.67;;
15342;SDS011;7771;48.478;8.936;2023-11-21T05:29:53;10.70;;;6.07;;
15342;SDS011;7771;48.478;8.936;2023-11-21T05:32:20;1.40;;;1.20;;
15342;SDS011;7771;48.478;8.936;2023-11-21T05:34:46;2.30;;;1.00;;
15342;SDS011;7771;48.478;8.936;2023-11-21T05:37:13;1.40;;;1.00;;
15342;SDS011;7771;48.478;8.936;2023-11-21T05:39:40;2.00;;;0.83;;
15342;SDS011;7771;48.478;8.936;2023-11-21T05:42:07;1.00;;;0.90;;
15342;SDS011;7771;48.478;8.936;2023-11-21T05:44:33;1.73;;;0.80;;
15342;SDS011;7771;48.478;8.936;2023-11-21T05:47:00;2.50;;;1.20;;
15342;SDS011;7771;48.478;8.936;2023-11-21T05:49:27;2.67;;;1.47;;
15342;SDS011;7771;48.478;8.936;2023-11-21T05:51:55;3.83;;;1.43;;
15342;SDS011;7771;48.478;8.936;2023-11-21T05:54:21;5.50;;;3.10;;
15342;SDS011;7771;48.478;8.936;2023-11-21T05:56:49;2.97;;;1.70;;
15342;SDS011;7771;48.478;8.936;2023-11-21T05:59:16;6.67;;;4.17;;
15342;SDS011;7771;48.478;8.936;2023-11-21T06:01:43;3.93;;;2.77;;
15342;SDS011;7771;48.478;8.936;2023-11-21T06:04:11;3.80;;;2.03;;
15342;SDS011;7771;48.478;8.936;2023-11-21T06:06:38;3.43;;;2.40;;
15342;SDS011;7771;48.478;8.936;2023-11-21T06:09:04;2.03;;;1.63;;
15342;SDS011;7771;48.478;8.936;2023-11-21T06:11:32;3.63;;;1.87;;
15342;SDS011;7771;48.478;8.936;2023-11-21T06:13:59;2.87;;;1.70;;
15342;SDS011;7771;48.478;8.936;2023-11-21T06:16:27;2.63;;;1.50;;
15342;SDS011;7771;48.478;8.936;2023-11-21T06:18:54;2.40;;;1.20;;
15342;SDS011;7771;48.478;8.936;2023-11-21T06:21:21;2.23;;;1.40;;
15342;SDS011;7771;48.478;8.936;2023-11-21T06:23:48;2.60;;;1.37;;
15342;SDS011;7771;48.478;8.936;2023-11-21T06:26:15;2.43;;;1.13;;
15342;SDS011;7771;48.478;8.936;2023-11-21T06:28:43;1.27;;;1.00;;
15342;SDS011;7771;48.478;8.936;2023-11-21T06:31:11;1.97;;;1.00;;
15342;SDS011;7771;48.478;8.936;2023-11-21T06:33:38;1.20;;;0.97;;
15342;SDS011;7771;48.478;8.936;2023-11-21T06:36:04;1.37;;;1.00;;
15342;SDS011;7771;48.478;8.936;2023-11-21T06:38:31;1.70;;;1.30;;
15342;SDS011;7771;48.478;8.936;2023-11-21T06:40:58;2.57;;;1.20;;
15342;SDS011;7771;48.478;8.936;2023-11-21T06:43:24;1.37;;;0.90;;
15342;SDS011;7771;48.478;8.936;2023-11-21T06:45:51;2.47;;;0.90;;
15342;SDS011;7771;48.478;8.936;2023-11-21T06:48:18;1.83;;;1.00;;
15342;SDS011;7771;48.478;8.936;2023-11-21T06:50:45;1.60;;;1.30;;
15342;SDS011;7771;48.478;8.936;2023-11-21T06:53:13;1.83;;;1.50;;
15342;SDS011;7771;48.478;8.936;2023-11-21T06:55:39;2.13;;;1.53;;
15342;SDS011;7771;48.478;8.936;2023-11-21T06:58:06;1.97;;;1.10;;
15342;SDS011;7771;48.478;8.936;2023-11-21T07:00:35;2.17;;;1.60;;
15342;SDS011;7771;48.478;8.936;2023-11-21T07:03:01;2.43;;;1.57;;
15342;SDS011;7771;48.478;8.936;2023-11-21T07:05:27;1.90;;;1.40;;
15342;SDS011;7771;48.478;8.936;2023-11-21T07:07:54;2.10;;;1.50;;
15342;SDS011;7771;48.478;8.936;2023-11-21T07:10:21;4.13;;;1.53;;
15342;SDS011;7771;48.478;8.936;2023-11-21T07:12:48;1.63;;;1.50;;
15342;SDS011;7771;48.478;8.936;2023-11-21T07:15:15;1.77;;;1.30;;
15342;SDS011;7771;48.478;8.936;2023-11-21T07:17:41;4.07;;;1.63;;
15342;SDS011;7771;48.478;8.936;2023-11-21T07:20:08;7.70;;;1.63;;
15342;SDS011;7771;48.478;8.936;2023-11-21T07:22:35;9.63;;;1.97;;
15342;SDS011;7771;48.478;8.936;2023-11-21T07:25:03;2.63;;;1.60;;
15342;SDS011;7771;48.478;8.936;2023-11-21T07:27:31;4.70;;;3.30;;
15342;SDS011;7771;48.478;8.936;2023-11-21T07:29:58;2.17;;;1.30;;
15342;SDS011;7771;48.478;8.936;2023-11-21T07:32:25;2.40;;;1.30;;
15342;SDS011;7771;48.478;8.936;2023-11-21T07:34:52;5.53;;;2.27;;
15342;SDS011;7771;48.478;8.936;2023-11-21T07:37:19;4.50;;;2.60;;
15342;SDS011;7771;48.478;8.936;2023-11-21T07:39:46;3.13;;;1.50;;
15342;SDS011;7771;48.478;8.936;2023-11-21T07:42:14;4.03;;;1.73;;
15342;SDS011;7771;48.478;8.936;2023-11-21T07:44:42;1.33;;;1.23;;
15342;SDS011;7771;48.478;8.936;2023-11-21T07:47:09;1.80;;;1.30;;
15342;SDS011;7771;48.478;8.936;2023-11-21T07:49:36;3.90;;;1.43;;
15342;SDS011;7771;48.478;8.936;2023-11-21T07:52:03;2.70;;;1.63;;
15342;SDS011;7771;48.478;8.936;2023-11-21T07:54:31;2.47;;;1.93;;
15342;SDS011;7771;48.478;8.936;2023-11-21T07:56:58;3.07;;;2.07;;
15342;SDS011;7771;48.478;8.936;2023-11-21T07:59:24;3.17;;;1.60;;
15342;SDS011;7771;48.478;8.936;2023-11-21T08:01:52;3.00;;;1.90;;
15342;SDS011;7771;48.478;8.936;2023-11-21T08:04:20;2.87;;;2.17;;
15342;SDS011;7771;48.478;8.936;2023-11-21T08:06:48;3.33;;;1.93;;
15342;SDS011;7771;48.478;8.936;2023-11-21T08:09:14;4.60;;;2.73;;
15342;SDS011;7771;48.478;8.936;2023-11-21T08:11:42;2.90;;;1.93;;
15342;SDS011;7771;48.478;8.936;2023-11-21T08:14:09;3.27;;;1.90;;
15342;SDS011;7771;48.478;8.936;2023-11-21T08:16:36;2.87;;;1.50;;
15342;SDS011;7771;48.478;8.936;2023-11-21T08:19:03;3.53;;;2.13;;
15342;SDS011;7771;48.478;8.936;2023-11-21T08:21:30;5.20;;;2.13;;
15342;SDS011;7771;48.478;8.936;2023-11-21T08:23:57;5.87;;;1.83;;
15342;SDS011;7771;48.478;8.936;2023-11-21T08:26:24;4.17;;;2.27;;
15342;SDS011;7771;48.478;8.936;2023-11-21T08:28:51;7.53;;;3.40;;
15342;SDS011;7771;48.478;8.936;2023-11-21T08:31:26;6.93;;;4.27;;
15342;SDS011;7771;48.478;8.936;2023-11-21T08:33:52;6.60;;;5.27;;
15342;SDS011;7771;48.478;8.936;2023-11-21T08:36:21;5.53;;;2.30;;
15342;SDS011;7771;48.478;8.936;2023-11-21T08:38:49;5.63;;;2.30;;
15342;SDS011;7771;48.478;8.936;2023-11-21T08:41:17;4.20;;;2.83;;
15342;SDS011;7771;48.478;8.936;2023-11-21T08:43:43;5.83;;;2.47;;
15342;SDS011;7771;48.478;8.936;2023-11-21T08:46:10;6.27;;;2.40;;
15342;SDS011;7771;48.478;8.936;2023-11-21T08:48:37;2.30;;;2.10;;
15342;SDS011;7771;48.478;8.936;2023-11-21T08:51:04;3.20;;;2.00;;
15342;SDS011;7771;48.478;8.936;2023-11-21T08:53:31;4.73;;;1.57;;
15342;SDS011;7771;48.478;8.936;2023-11-21T08:55:58;2.67;;;1.90;;
15342;SDS011;7771;48.478;8.936;2023-11-21T08:58:24;4.13;;;3.73;;
15342;SDS011;7771;48.478;8.936;2023-11-21T09:00:51;5.43;;;2.40;;
15342;SDS011;7771;48.478;8.936;2023-11-21T09:03:17;3.53;;;2.23;;
15342;SDS011;7771;48.478;8.936;2023-11-21T09:05:45;8.73;;;3.07;;
15342;SDS011;7771;48.478;8.936;2023-11-21T09:08:13;7.83;;;3.60;;
15342;SDS011;7771;48.478;8.936;2023-11-21T09:10:40;6.80;;;3.80;;
15342;SDS011;7771;48.478;8.936;2023-11-21T09:13:09;7.30;;;3.83;;
15342;SDS011;7771;48.478;8.936;2023-11-21T09:15:35;7.07;;;4.07;;
15342;SDS011;7771;48.478;8.936;2023-11-21T09:18:03;6.20;;;3.90;;
15342;SDS011;7771;48.478;8.936;2023-11-21T09:20:30;7.47;;;4.03;;
15342;SDS011;7771;48.478;8.936;2023-11-21T09:22:57;10.17;;;5.20;;
15342;SDS011;7771;48.478;8.936;2023-11-21T09:25:26;12.53;;;5.20;;
15342;SDS011;7771;48.478;8.936;2023-11-21T09:27:52;7.43;;;4.53;;
15342;SDS011;7771;48.478;8.936;2023-11-21T09:30:19;9.30;;;5.70;;
15342;SDS011;7771;48.478;8.936;2023-11-21T09:32:47;8.77;;;4.70;;
15342;SDS011;7771;48.478;8.936;2023-11-21T09:35:16;8.50;;;4.20;;
15342;SDS011;7771;48.478;8.936;2023-11-21T09:37:43;7.03;;;4.17;;
15342;SDS011;7771;48.478;8.936;2023-11-21T09:40:10;6.50;;;3.83;;
15342;SDS011;7771;48.478;8.936;2023-11-21T09:42:38;6.00;;;3.90;;
15342;SDS011;7771;48.478;8.936;2023-11-21T09:45:08;6.23;;;4.10;;
15342;SDS011;7771;48.478;8.936;2023-11-21T09:47:35;8.83;;;4.20;;
15342;SDS011;7771;48.478;8.936;2023-11-21T09:50:03;8.47;;;5.33;;
15342;SDS011;7771;48.478;8.936;2023-11-21T09:52:30;13.47;;;8.20;;
15342;SDS011;7771;48.478;8.936;2023-11-21T09:54:58;18.73;;;9.33;;
15342;SDS011;7771;48.478;8.936;2023-11-21T09:57:25;14.93;;;8.13;;
15342;SDS011;7771;48.478;8.936;2023-11-21T09:59:53;10.77;;;6.10;;
15342;SDS011;7771;48.478;8.936;2023-11-21T10:02:22;10.40;;;5.60;;
15342;SDS011;7771;48.478;8.936;2023-11-21T10:04:49;10.23;;;5.30;;
15342;SDS011;7771;48.478;8.936;2023-11-21T10:07:16;7.77;;;5.53;;
15342;SDS011;7771;48.478;8.936;2023-11-21T10:09:43;8.33;;;5.03;;
15342;SDS011;7771;48.478;8.936;2023-11-21T10:12:10;6.13;;;4.60;;
15342;SDS011;7771;48.478;8.936;2023-11-21T10:14:36;5.37;;;3.50;;
15342;SDS011;7771;48.478;8.936;2023-11-21T10:17:03;6.43;;;3.77;;
15342;SDS011;7771;48.478;8.936;2023-11-21T10:19:30;11.13;;;7.13;;
15342;SDS011;7771;48.478;8.936;2023-11-21T10:21:58;11.93;;;7.43;;
15342;SDS011;7771;48.478;8.936;2023-11-21T10:24:24;9.67;;;5.40;;
15342;SDS011;7771;48.478;8.936;2023-11-21T10:26:51;10.07;;;5.20;;
15342;SDS011;7771;48.478;8.936;2023-11-21T10:29:18;9.77;;;6.43;;
15342;SDS011;7771;48.478;8.936;2023-11-21T10:31:45;9.20;;;6.00;;
15342;SDS011;7771;48.478;8.936;2023-11-21T10:34:14;9.53;;;5.97;;
15342;SDS011;7771;48.478;8.936;2023-11-21T10:36:42;5.13;;;3.50;;
15342;SDS011;7771;48.478;8.936;2023-11-21T10:39:09;6.30;;;3.53;;
15342;SDS011;7771;48.478;8.936;2023-11-21T10:41:36;11.47;;;5.10;;
15342;SDS011;7771;48.478;8.936;2023-11-21T10:44:03;10.03;;;5.73;;
15342;SDS011;7771;48.478;8.936;2023-11-21T10:46:30;10.00;;;5.67;;
15342;SDS011;7771;48.478;8.936;2023-11-21T10:48:57;6.03;;;3.60;;
15342;SDS011;7771;48.478;8.936;2023-11-21T10:51:25;4.70;;;3.20;;
15342;SDS011;7771;48.478;8.936;2023-11-21T10:53:52;5.87;;;2.90;;
15342;SDS011;7771;48.478;8.936;2023-11-21T10:56:19;3.37;;;2.30;;
15342;SDS011;7771;48.478;8.936;2023-11-21T10:58:48;4.70;;;2.87;;
15342;SDS011;7771;48.478;8.936;2023-11-21T11:01:14;4.37;;;2.67;;
15342;SDS011;7771;48.478;8.936;2023-11-21T11:06:19;9.37;;;4.70;;
15342;SDS011;7771;48.478;8.936;2023-11-21T11:08:48;6.67;;;4.10;;
15342;SDS011;7771;48.478;8.936;2023-11-21T11:11:14;5.40;;;3.50;;
15342;SDS011;7771;48.478;8.936;2023-11-21T11:13:43;4.17;;;2.47;;
15342;SDS011;7771;48.478;8.936;2023-11-21T11:16:11;3.03;;;2.30;;
15342;SDS011;7771;48.478;8.936;2023-11-21T11:18:37;1.90;;;1.67;;
15342;SDS011;7771;48.478;8.936;2023-11-21T11:21:07;2.27;;;1.90;;
15342;SDS011;7771;48.478;8.936;2023-11-21T11:23:40;2.60;;;1.80;;
15342;SDS011;7771;48.478;8.936;2023-11-21T11:26:12;3.97;;;2.00;;
15342;SDS011;7771;48.478;8.936;2023-11-21T11:28:41;3.83;;;1.50;;
15342;SDS011;7771;48.478;8.936;2023-11-21T11:31:14;2.70;;;1.20;;
15342;SDS011;7771;48.478;8.936;2023-11-21T11:33:49;1.87;;;1.50;;
15342;SDS011;7771;48.478;8.936;2023-11-21T11:36:17;1.67;;;1.57;;
15342;SDS011;7771;48.478;8.936;2023-11-21T11:38:45;2.60;;;1.37;;
15342;SDS011;7771;48.478;8.936;2023-11-21T11:41:12;3.47;;;2.83;;
15342;SDS011;7771;48.478;8.936;2023-11-21T11:43:39;3.10;;;1.73;;
15342;SDS011;7771;48.478;8.936;2023-11-21T11:46:06;1.13;;;1.03;;
15342;SDS011;7771;48.478;8.936;2023-11-21T11:48:34;3.07;;;1.60;;
15342;SDS011;7771;48.478;8.936;2023-11-21T11:51:02;3.13;;;1.57;;
15342;SDS011;7771;48.478;8.936;2023-11-21T11:53:32;2.63;;;1.57;;
15342;SDS011;7771;48.478;8.936;2023-11-21T11:58:43;3.00;;;1.90;;
15342;SDS011;7771;48.478;8.936;2023-11-21T12:01:11;2.77;;;1.37;;
15342;SDS011;7771;48.478;8.936;2023-11-21T12:03:37;1.67;;;1.53;;
15342;SDS011;7771;48.478;8.936;2023-11-21T12:06:05;3.43;;;1.73;;
15342;SDS011;7771;48.478;8.936;2023-11-21T12:08:32;3.27;;;1.80;;
15342;SDS011;7771;48.478;8.936;2023-11-21T12:11:00;2.57;;;1.60;;
15342;SDS011;7771;48.478;8.936;2023-11-21T12:13:26;2.03;;;1.80;;
15342;SDS011;7771;48.478;8.936;2023-11-21T12:15:53;3.10;;;1.83;;
15342;SDS011;7771;48.478;8.936;2023-11-21T12:18:20;61.50;;;22.63;;
15342;SDS011;7771;48.478;8.936;2023-11-21T12:20:47;93.67;;;37.93;;
15342;SDS011;7771;48.478;8.936;2023-11-21T12:23:15;44.50;;;19.70;;
15342;SDS011;7771;48.478;8.936;2023-11-21T12:25:42;24.00;;;9.60;;
15342;SDS011;7771;48.478;8.936;2023-11-21T12:28:10;14.57;;;5.00;;
15342;SDS011;7771;48.478;8.936;2023-11-21T12:30:37;26.90;;;8.67;;
15342;SDS011;7771;48.478;8.936;2023-11-21T12:33:05;6.67;;;3.27;;
15342;SDS011;7771;48.478;8.936;2023-11-21T12:35:33;5.57;;;1.93;;
15342;SDS011;7771;48.478;8.936;2023-11-21T12:38:02;2.83;;;1.50;;
15342;SDS011;7771;48.478;8.936;2023-11-21T12:40:30;2.10;;;1.30;;
15342;SDS011;7771;48.478;8.936;2023-11-21T12:42:57;4.87;;;1.93;;
15342;SDS011;7771;48.478;8.936;2023-11-21T12:45:25;1.37;;;1.23;;
15342;SDS011;7771;48.478;8.936;2023-11-21T12:47:52;1.53;;;1.20;;
15342;SDS011;7771;48.478;8.936;2023-11-21T12:50:20;2.90;;;1.73;;
15342;SDS011;7771;48.478;8.936;2023-11-21T12:52:50;2.87;;;2.00;;
15342;SDS011;7771;48.478;8.936;2023-11-21T12:55:17;3.83;;;2.03;;
15342;SDS011;7771;48.478;8.936;2023-11-21T12:57:45;3.43;;;2.50;;
15342;SDS011;7771;48.478;8.936;2023-11-21T13:00:12;4.00;;;2.33;;
15342;SDS011;7771;48.478;8.936;2023-11-21T13:02:42;3.13;;;2.70;;
15342;SDS011;7771;48.478;8.936;2023-11-21T13:05:10;2.27;;;1.80;;
15342;SDS011;7771;48.478;8.936;2023-11-21T13:07:42;2.87;;;1.67;;
15342;SDS011;7771;48.478;8.936;2023-11-21T13:10:09;2.30;;;1.90;;
15342;SDS011;7771;48.478;8.936;2023-11-21T13:12:37;5.50;;;4.00;;
15342;SDS011;7771;48.478;8.936;2023-11-21T13:15:09;8.40;;;5.53;;
15342;SDS011;7771;48.478;8.936;2023-11-21T13:17:36;4.80;;;3.97;;
15342;SDS011;7771;48.478;8.936;2023-11-21T13:20:04;3.57;;;2.97;;
15342;SDS011;7771;48.478;8.936;2023-11-21T13:22:32;5.37;;;3.83;;
15342;SDS011;7771;48.478;8.936;2023-11-21T13:24:59;4.57;;;3.80;;
15342;SDS011;7771;48.478;8.936;2023-11-21T13:27:26;3.63;;;3.33;;
15342;SDS011;7771;48.478;8.936;2023-11-21T13:29:54;4.07;;;3.17;;
15342;SDS011;7771;48.478;8.936;2023-11-21T13:32:21;4.50;;;3.50;;
15342;SDS011;7771;48.478;8.936;2023-11-21T13:34:50;2.40;;;2.20;;
15342;SDS011;7771;48.478;8.936;2023-11-21T13:37:18;2.37;;;1.90;;
15342;SDS011;7771;48.478;8.936;2023-11-21T13:39:46;5.33;;;3.83;;
15342;SDS011;7771;48.478;8.936;2023-11-21T13:42:12;2.80;;;2.40;;
15342;SDS011;7771;48.478;8.936;2023-11-21T13:44:40;6.37;;;4.00;;
15342;SDS011;7771;48.478;8.936;2023-11-21T13:47:09;3.27;;;2.43;;
15342;SDS011;7771;48.478;8.936;2023-11-21T13:49:35;3.23;;;2.73;;
15342;SDS011;7771;48.478;8.936;2023-11-21T13:52:02;3.13;;;2.27;;
15342;SDS011;7771;48.478;8.936;2023-11-21T13:54:28;2.33;;;1.90;;
15342;SDS011;7771;48.478;8.936;2023-11-21T13:56:55;2.30;;;1.60;;
15342;SDS011;7771;48.478;8.936;2023-11-21T13:59:23;3.00;;;2.30;;
15342;SDS011;7771;48.478;8.936;2023-11-21T14:01:50;2.30;;;2.10;;
15342;SDS011;7771;48.478;8.936;2023-11-21T14:04:19;2.53;;;1.90;;
15342;SDS011;7771;48.478;8.936;2023-11-21T14:06:47;2.60;;;2.40;;
15342;SDS011;7771;48.478;8.936;2023-11-21T14:09:16;3.97;;;3.57;;
15342;SDS011;7771;48.478;8.936;2023-11-21T14:11:55;4.80;;;2.90;;
15342;SDS011;7771;48.478;8.936;2023-11-21T14:14:22;3.40;;;3.10;;
15342;SDS011;7771;48.478;8.936;2023-11-21T14:16:49;3.27;;;2.87;;
15342;SDS011;7771;48.478;8.936;2023-11-21T14:19:15;4.23;;;3.30;;
15342;SDS011;7771;48.478;8.936;2023-11-21T14:21:43;4.03;;;3.40;;
15342;SDS011;7771;48.478;8.936;2023-11-21T14:24:11;5.57;;;3.80;;
15342;SDS011;7771;48.478;8.936;2023-11-21T14:26:40;10.77;;;7.50;;
15342;SDS011;7771;48.478;8.936;2023-11-21T14:29:08;5.17;;;4.13;;
15342;SDS011;7771;48.478;8.936;2023-11-21T14:31:34;4.63;;;4.20;;
15342;SDS011;7771;48.478;8.936;2023-11-21T14:34:01;5.10;;;3.30;;
15342;SDS011;7771;48.478;8.936;2023-11-21T14:36:30;4.20;;;3.77;;
15342;SDS011;7771;48.478;8.936;2023-11-21T14:38:56;5.57;;;5.00;;
15342;SDS011;7771;48.478;8.936;2023-11-21T14:41:22;4.77;;;3.67;;
15342;SDS011;7771;48.478;8.936;2023-11-21T14:43:49;4.90;;;4.47;;
15342;SDS011;7771;48.478;8.936;2023-11-21T14:46:16;6.20;;;4.37;;
15342;SDS011;7771;48.478;8.936;2023-11-21T14:48:43;3.40;;;3.10;;
15342;SDS011;7771;48.478;8.936;2023-11-21T14:51:12;4.17;;;3.30;;
15342;SDS011;7771;48.478;8.936;2023-11-21T14:53:58;3.93;;;3.47;;
15342;SDS011;7771;48.478;8.936;2023-11-21T14:56:24;6.87;;;5.90;;
15342;SDS011;7771;48.478;8.936;2023-11-21T14:58:54;7.07;;;3.60;;
15342;SDS011;7771;48.478;8.936;2023-11-21T15:01:22;5.37;;;2.80;;
15342;SDS011;7771;48.478;8.936;2023-11-21T15:04:05;4.07;;;2.53;;
15342;SDS011;7771;48.478;8.936;2023-11-21T15:06:32;3.10;;;2.60;;